Time;durP1;ratioP1;P1;durP2;ratioP2;P2;SDS_P1;SDS_P2;PMS_P1;PMS_P2;Temp;Humidity;BMP_temperature;BMP_pressure;BME280_temperature;BME280_humidity;BME280_pressure;Samples;Min_cycle;Max_cycle;Signal;HPM_P1;HPM_P2
2023/12/17 00:02:10;;;;;;;24.25;6.25;;;;;;;-1.87;100.00;101467.56;10205958;29;20032;-71
2023/12/17 00:07:11;;;;;;;19.50;6.10;;;;;;;-1.99;100.00;101439.41;10206453;29;20059;-69
2023/12/17 00:12:12;;;;;;;16.33;5.80;;;;;;;-2.56;100.00;101368.75;10205060;29;20109;-69
2023/12/17 00:17:13;;;;;;;27.60;6.75;;;;;;;-2.26;100.00;101420.50;10205121;29;20039;-69
2023/12/17 00:22:14;;;;;;;20.95;5.55;;;;;;;-2.69;100.00;101354.50;10204871;29;20547;-69
2023/12/17 00:27:15;;;;;;;19.35;6.25;;;;;;;-2.24;100.00;101444.69;10205324;29;20036;-69
2023/12/17 00:32:16;;;;;;;43.05;15.45;;;;;;;-2.28;100.00;101428.34;10204898;29;20067;-69
2023/12/17 00:37:17;;;;;;;27.15;7.50;;;;;;;-2.36;100.00;101436.47;10204819;29;20435;-69
2023/12/17 00:42:18;;;;;;;41.10;13.05;;;;;;;-2.49;100.00;101443.03;10205429;29;20086;-69
2023/12/17 00:47:18;;;;;;;29.75;9.20;;;;;;;-2.65;100.00;101445.38;10211459;29;20575;-69
2023/12/17 00:52:22;;;;;;;18.67;5.50;;;;;;;-2.47;100.00;101490.66;10210769;29;20066;-69
2023/12/17 00:57:24;;;;;;;16.67;6.03;;;;;;;-2.46;100.00;101468.94;10210461;29;20047;-69
2023/12/17 01:02:25;;;;;;;19.95;5.05;;;;;;;-2.38;100.00;101479.06;10210751;29;20040;-69
2023/12/17 01:07:25;;;;;;;17.27;5.20;;;;;;;-2.25;100.00;101484.66;10211118;29;20044;-70
2023/12/17 01:12:26;;;;;;;25.42;5.38;;;;;;;-2.27;100.00;101495.16;10211391;29;20063;-69
2023/12/17 01:17:27;;;;;;;18.83;4.63;;;;;;;-2.34;100.00;101501.47;10210404;29;20078;-69
2023/12/17 01:22:28;;;;;;;17.48;4.78;;;;;;;-2.77;100.00;101453.63;10209957;29;20044;-69
2023/12/17 01:27:28;;;;;;;19.02;4.70;;;;;;;-2.41;100.00;101531.22;10209745;29;20589;-69
2023/12/17 01:32:29;;;;;;;15.35;4.50;;;;;;;-2.51;100.00;101525.53;10210983;29;20058;-69
2023/12/17 01:37:30;;;;;;;17.23;4.35;;;;;;;-2.67;100.00;101526.97;10209622;29;20056;-69
2023/12/17 01:42:31;;;;;;;13.40;4.97;;;;;;;-2.81;100.00;101525.69;10209829;29;20075;-70
2023/12/17 01:47:32;;;;;;;15.50;4.47;;;;;;;-2.89;100.00;101527.72;10209630;29;20550;-70
2023/12/17 01:52:33;;;;;;;13.48;5.07;;;;;;;-2.86;100.00;101538.00;10208792;29;20040;-70
2023/12/17 01:57:35;;;;;;;15.93;4.80;;;;;;;-2.90;100.00;101544.22;10208646;29;20051;-70
2023/12/17 02:02:36;;;;;;;20.10;4.45;;;;;;;-2.92;100.00;101555.56;10208563;29;20040;-71
2023/12/17 02:07:40;;;;;;;16.88;4.00;;;;;;;-2.96;100.00;101560.03;10208673;29;20040;-70
2023/12/17 02:12:41;;;;;;;19.08;4.40;;;;;;;-3.01;100.00;101548.94;10208844;29;20123;-71
2023/12/17 02:17:42;;;;;;;11.52;3.67;;;;;;;-2.91;100.00;101567.66;10208833;29;20138;-70
2023/12/17 02:22:44;;;;;;;22.63;4.18;;;;;;;-3.01;100.00;101548.94;10208434;29;20094;-70
2023/12/17 02:27:44;;;;;;;18.15;4.25;;;;;;;-3.49;100.00;101471.72;10208503;29;20055;-70
2023/12/17 02:32:45;;;;;;;22.70;4.10;;;;;;;-2.95;100.00;101587.72;10207583;29;20055;-71
2023/12/17 02:37:46;;;;;;;14.90;4.50;;;;;;;-3.14;100.00;101584.00;10207405;29;20566;-71
2023/12/17 02:42:47;;;;;;;12.88;3.70;;;;;;;-3.08;100.00;101602.00;10207710;29;20043;-71
2023/12/17 02:47:47;;;;;;;17.90;3.70;;;;;;;-3.00;100.00;101616.47;10207641;29;20134;-71
2023/12/17 02:52:48;;;;;;;16.00;3.95;;;;;;;-3.08;100.00;101618.47;10207515;29;20105;-71
2023/12/17 02:57:49;;;;;;;12.38;3.70;;;;;;;-3.05;100.00;101646.97;10207670;29;20047;-71
2023/12/17 03:02:50;;;;;;;18.73;3.92;;;;;;;-2.97;100.00;101662.31;10206830;29;20051;-71
2023/12/17 03:07:51;;;;;;;22.30;4.47;;;;;;;-2.97;100.00;101659.72;10206125;29;20106;-71
2023/12/17 03:12:51;;;;;;;14.57;3.40;;;;;;;-2.92;100.00;101670.81;10205276;29;20417;-71
2023/12/17 03:17:52;;;;;;;18.67;4.18;;;;;;;-2.84;100.00;101674.03;10206611;29;20097;-70
2023/12/17 03:22:53;;;;;;;18.67;4.25;;;;;;;-3.14;100.00;101597.00;10207258;29;20047;-70
2023/12/17 03:27:54;;;;;;;17.25;5.15;;;;;;;-2.96;100.00;101629.34;10206168;29;20071;-71
2023/12/17 03:32:54;;;;;;;21.10;4.45;;;;;;;-2.71;100.00;101642.41;10205303;29;20067;-71
2023/12/17 03:37:55;;;;;;;13.68;4.50;;;;;;;-2.72;100.00;101638.09;10206466;29;20139;-72
2023/12/17 03:42:57;;;;;;;18.02;4.63;;;;;;;-2.62;100.00;101660.31;10207001;29;20039;-71
2023/12/17 03:47:57;;;;;;;18.25;3.83;;;;;;;-2.63;100.00;101679.41;10206180;29;20048;-71
2023/12/17 03:52:58;;;;;;;9.88;3.53;;;;;;;-2.69;100.00;101674.41;10206089;29;20043;-71
2023/12/17 03:57:59;;;;;;;21.98;3.75;;;;;;;-2.84;100.00;101666.25;10205494;29;20217;-72
2023/12/17 04:02:59;;;;;;;17.88;3.90;;;;;;;-2.70;100.00;101683.13;10205939;29;20039;-71
2023/12/17 04:08:00;;;;;;;18.83;4.93;;;;;;;-2.68;100.00;101687.38;10205056;29;20050;-71
2023/12/17 04:13:01;;;;;;;16.52;3.70;;;;;;;-2.88;100.00;101674.16;10225702;28;20046;-71
2023/12/17 04:18:02;;;;;;;12.82;4.45;;;;;;;-2.90;100.00;101694.16;10283863;28;20042;-70
2023/12/17 04:23:04;;;;;;;16.13;4.85;;;;;;;-3.00;100.00;101702.25;10337860;28;20045;-70
2023/12/17 04:28:04;;;;;;;23.17;5.82;;;;;;;-3.17;100.00;101654.28;10347292;28;20086;-70
2023/12/17 04:33:05;;;;;;;12.05;4.38;;;;;;;-2.90;100.00;101699.34;10210679;29;20063;-70
2023/12/17 04:38:06;;;;;;;21.33;6.70;;;;;;;-3.23;100.00;101653.59;10255039;28;20067;-71
2023/12/17 04:43:07;;;;;;;15.38;5.30;;;;;;;-2.81;100.00;101712.94;10419173;28;20418;-70
2023/12/17 04:48:07;;;;;;;16.50;5.28;;;;;;;-2.82;100.00;101723.38;10303232;28;20036;-71
2023/12/17 04:53:08;;;;;;;18.55;4.05;;;;;;;-2.83;100.00;101719.94;10211013;28;20042;-70
2023/12/17 04:58:09;;;;;;;16.63;4.13;;;;;;;-2.71;100.00;101725.66;10210621;29;20044;-70
2023/12/17 05:03:10;;;;;;;16.10;4.05;;;;;;;-3.03;100.00;101691.09;10210719;29;20054;-71
2023/12/17 05:08:11;;;;;;;16.73;3.53;;;;;;;-2.71;100.00;101739.50;10211419;29;20038;-70
2023/12/17 05:13:12;;;;;;;13.90;3.50;;;;;;;-2.65;100.00;101757.53;10210094;29;20071;-70
2023/12/17 05:18:13;;;;;;;12.63;3.55;;;;;;;-2.55;100.00;101740.69;10210045;29;20040;-70
2023/12/17 05:23:14;;;;;;;12.57;4.25;;;;;;;-2.58;100.00;101750.38;10210374;29;20415;-71
2023/12/17 05:28:14;;;;;;;17.05;3.78;;;;;;;-2.53;100.00;101764.09;10210155;29;20079;-70
2023/12/17 05:33:15;;;;;;;12.40;3.40;;;;;;;-2.54;100.00;101770.19;10269802;28;20041;-69
2023/12/17 05:38:16;;;;;;;11.75;3.08;;;;;;;-2.47;100.00;101769.09;10416372;28;20059;-69
2023/12/17 05:43:17;;;;;;;20.35;5.30;;;;;;;-2.50;100.00;101765.75;10417290;28;20041;-67
2023/12/17 05:48:18;;;;;;;17.90;3.60;;;;;;;-2.41;100.00;101776.69;10416678;28;20175;-68
2023/12/17 05:53:18;;;;;;;9.75;3.75;;;;;;;-2.44;100.00;101792.41;10415535;28;20037;-68
2023/12/17 05:58:19;;;;;;;14.95;3.60;;;;;;;-2.45;100.00;101785.50;10416049;28;20045;-68
2023/12/17 06:03:20;;;;;;;19.40;3.40;;;;;;;-2.35;100.00;101792.09;10416337;28;20512;-68
2023/12/17 06:08:21;;;;;;;25.63;4.55;;;;;;;-2.22;100.00;101800.34;10416420;28;20052;-68
2023/12/17 06:13:22;;;;;;;14.10;3.47;;;;;;;-2.16;100.00;101788.91;10415888;28;20088;-68
2023/12/17 06:18:23;;;;;;;15.85;3.30;;;;;;;-2.05;100.00;101804.19;10415693;28;20106;-69
2023/12/17 06:23:24;;;;;;;13.90;3.47;;;;;;;-2.09;100.00;101808.63;10415085;28;20493;-68
2023/12/17 06:28:25;;;;;;;14.00;3.83;;;;;;;-2.24;100.00;101759.66;10415527;28;20044;-70
2023/12/17 06:33:25;;;;;;;15.45;4.10;;;;;;;-2.25;100.00;101735.38;10414014;28;20042;-68
2023/12/17 06:38:26;;;;;;;17.98;3.88;;;;;;;-2.41;100.00;101745.47;10413894;28;20107;-69
2023/12/17 06:43:27;;;;;;;11.43;3.67;;;;;;;-1.95;100.00;101806.41;10412928;28;20053;-66
2023/12/17 06:48:28;;;;;;;14.20;4.60;;;;;;;-1.88;100.00;101800.09;10407851;28;20519;-65
2023/12/17 06:53:29;;;;;;;16.83;3.60;;;;;;;-1.78;100.00;101825.81;10407661;28;20041;-65
2023/12/17 06:58:30;;;;;;;15.18;3.65;;;;;;;-1.86;100.00;101811.28;10407610;28;20045;-66
2023/12/17 07:03:30;;;;;;;14.25;3.67;;;;;;;-1.75;100.00;101817.91;10407200;28;20037;-66
2023/12/17 07:08:31;;;;;;;11.45;3.30;;;;;;;-1.66;100.00;101830.63;10407295;28;20045;-66
2023/12/17 07:13:32;;;;;;;14.30;3.33;;;;;;;-1.62;100.00;101829.59;10408090;28;20037;-66
2023/12/17 07:18:33;;;;;;;15.50;3.83;;;;;;;-1.67;100.00;101823.72;10406574;28;20036;-65
2023/12/17 07:23:33;;;;;;;15.15;3.95;;;;;;;-1.86;100.00;101773.97;10325702;28;20046;-68
2023/12/17 07:28:34;;;;;;;13.73;3.45;;;;;;;-1.49;100.00;101841.31;10352424;28;20068;-66
2023/12/17 07:33:35;;;;;;;11.20;3.70;;;;;;;-2.42;100.00;101678.72;10405945;28;20091;-65
2023/12/17 07:38:36;;;;;;;14.70;3.97;;;;;;;-1.84;100.00;101773.03;10411203;28;20111;-66
2023/12/17 07:43:37;;;;;;;17.17;3.53;;;;;;;-1.92;100.00;101728.16;10383089;28;20060;-65
2023/12/17 07:48:38;;;;;;;11.02;3.65;;;;;;;-1.47;100.00;101774.31;10221209;28;20058;-66
2023/12/17 07:53:39;;;;;;;13.43;3.47;;;;;;;-1.20;100.00;101805.50;10210270;29;20044;-69
2023/12/17 07:58:40;;;;;;;19.92;4.20;;;;;;;-1.12;100.00;101820.88;10212812;29;20044;-68
2023/12/17 08:03:40;;;;;;;18.63;3.55;;;;;;;-1.05;100.00;101830.16;10212224;29;20055;-67
2023/12/17 08:08:41;;;;;;;10.55;3.10;;;;;;;-1.49;100.00;101772.69;10212636;29;20067;-65
2023/12/17 08:13:44;;;;;;;17.65;3.58;;;;;;;-1.16;100.00;101835.78;10210725;29;20039;-69
2023/12/17 08:18:44;;;;;;;11.27;3.60;;;;;;;-1.40;100.00;101786.25;10210791;29;20162;-66
2023/12/17 08:23:45;;;;;;;19.25;3.45;;;;;;;-0.98;100.00;101848.16;10211594;29;20146;-66
2023/12/17 08:28:46;;;;;;;12.82;3.15;;;;;;;-0.89;100.00;101851.34;10210239;29;20177;-66
2023/12/17 08:33:51;;;;;;;10.75;3.45;;;;;;;-0.68;100.00;101841.84;10211897;29;20039;-66
2023/12/17 08:38:51;;;;;;;9.43;3.15;;;;;;;-0.63;100.00;101852.94;10212224;29;20055;-66
2023/12/17 08:43:52;;;;;;;12.40;2.95;;;;;;;-0.64;100.00;101859.06;10210931;29;20039;-67
2023/12/17 08:48:53;;;;;;;10.23;3.40;;;;;;;-0.59;100.00;101864.97;10210960;29;20126;-66
2023/12/17 08:53:54;;;;;;;13.75;3.63;;;;;;;-0.95;100.00;101805.44;10210807;29;20084;-67
2023/12/17 08:58:54;;;;;;;9.35;3.47;;;;;;;-0.95;100.00;101797.63;10211479;29;20130;-68
2023/12/17 09:03:55;;;;;;;16.33;4.32;;;;;;;-1.07;100.00;101783.28;10210572;29;20040;-67
2023/12/17 09:08:56;;;;;;;11.88;3.90;;;;;;;-0.61;100.00;101843.28;10210999;29;20044;-67
2023/12/17 09:13:57;;;;;;;11.23;3.35;;;;;;;-0.86;100.00;101796.44;10210435;29;20039;-67
2023/12/17 09:18:58;;;;;;;14.80;3.95;;;;;;;-0.74;100.00;101835.94;10210828;29;20419;-68
2023/12/17 09:23:59;;;;;;;11.43;3.47;;;;;;;-0.57;100.00;101845.72;10275576;28;20136;-68
2023/12/17 09:29:00;;;;;;;10.60;3.50;;;;;;;-0.84;100.00;101789.38;10357330;28;20087;-65
2023/12/17 09:34:00;;;;;;;14.25;4.70;;;;;;;-0.78;100.00;101786.53;10415480;28;20045;-66
2023/12/17 09:39:01;;;;;;;12.77;4.93;;;;;;;-0.54;99.87;101800.38;10417559;28;20061;-67
2023/12/17 09:44:06;;;;;;;14.25;3.95;;;;;;;-0.30;99.09;101830.75;10417739;28;20049;-66
2023/12/17 09:49:06;;;;;;;14.20;4.10;;;;;;;-0.34;98.73;101839.59;10415253;28;20037;-66
2023/12/17 09:54:07;;;;;;;13.88;3.97;;;;;;;-0.28;99.22;101825.44;10416785;28;20045;-69
2023/12/17 09:59:08;;;;;;;17.65;4.45;;;;;;;-0.36;98.87;101772.66;10416563;28;20044;-68
2023/12/17 10:04:09;;;;;;;13.98;4.68;;;;;;;-0.02;98.76;101813.94;10416171;28;20044;-69
2023/12/17 10:09:09;;;;;;;10.73;3.95;;;;;;;0.15;97.89;101803.63;10416264;28;20049;-67
2023/12/17 10:14:24;;;;;;;12.52;4.38;;;;;;;-0.25;94.80;101744.34;10413178;28;20048;-66
2023/12/17 10:19:25;;;;;;;12.82;3.95;;;;;;;-0.49;97.06;101759.28;10414144;28;20444;-65
2023/12/17 10:24:40;;;;;;;13.20;4.38;;;;;;;-0.09;96.45;101828.13;10414326;28;20033;-69
2023/12/17 10:29:44;;;;;;;17.75;4.50;;;;;;;-0.12;96.63;101803.03;10412913;28;20110;-67
2023/12/17 10:34:45;;;;;;;12.05;4.70;;;;;;;-0.33;96.57;101756.88;10357799;28;20047;-69
2023/12/17 10:39:51;;;;;;;9.85;3.72;;;;;;;-0.18;96.55;101781.50;10289810;28;20059;-68
2023/12/17 10:44:54;;;;;;;15.18;4.90;;;;;;;0.00;96.73;101822.56;10204088;29;20047;-69
2023/12/17 10:49:56;;;;;;;11.05;3.85;;;;;;;0.08;96.24;101835.28;10203472;29;20491;-66
2023/12/17 10:54:57;;;;;;;11.25;4.13;;;;;;;-0.11;95.74;101843.91;10205122;29;20169;-66
2023/12/17 10:59:59;;;;;;;9.98;3.28;;;;;;;-0.21;96.39;101842.53;10199591;29;20044;-69
2023/12/17 11:05:00;;;;;;;9.05;3.08;;;;;;;-0.21;96.18;101833.88;10240808;28;20058;-66
2023/12/17 11:10:01;;;;;;;5.78;2.63;;;;;;;-0.18;95.70;101832.00;10323838;28;20067;-65
2023/12/17 11:15:02;;;;;;;8.80;3.10;;;;;;;-0.22;96.24;101858.28;10266220;28;20050;-66
2023/12/17 11:20:07;;;;;;;8.80;2.92;;;;;;;-0.43;95.54;101860.00;10206349;29;20047;-65
2023/12/17 11:25:11;;;;;;;;;;;;;;;-0.28;93.77;101854.16;10286702;28;20037;-65
2023/12/17 11:30:32;;;;;;;8.90;2.35;;;;;;;-0.48;94.41;101844.50;10293224;28;19940;-65
2023/12/17 11:35:36;;;;;;;12.93;3.30;;;;;;;-0.53;96.09;101854.28;10373786;28;20040;-65
2023/12/17 11:40:39;;;;;;;13.10;3.53;;;;;;;-0.72;95.90;101864.56;10206702;28;20046;-65
2023/12/17 11:45:45;;;;;;;10.90;3.30;;;;;;;-0.93;96.04;101861.00;10268865;28;20053;-65
2023/12/17 11:50:57;;;;;;;13.23;3.75;;;;;;;-1.04;96.53;101858.81;10371118;28;20500;-65
2023/12/17 11:56:07;;;;;;;12.75;3.72;;;;;;;-0.98;96.96;101866.41;10205748;29;20052;-65
2023/12/17 12:01:13;;;;;;;12.32;3.63;;;;;;;-1.05;96.35;101857.09;10205836;29;20047;-65
2023/12/17 12:06:14;;;;;;;9.48;3.50;;;;;;;-1.01;96.88;101879.56;10204586;29;20040;-65
2023/12/17 12:11:18;;;;;;;12.63;3.90;;;;;;;-1.26;96.75;101876.97;10358043;28;20049;-65
2023/12/17 12:16:20;;;;;;;11.55;3.75;;;;;;;-1.25;96.90;101901.31;10331169;28;20047;-65
2023/12/17 12:21:24;;;;;;;8.95;3.33;;;;;;;-1.34;97.22;101899.88;10282749;28;20054;-66
2023/12/17 12:26:25;;;;;;;10.32;3.85;;;;;;;-1.47;97.76;101896.81;10247537;28;20046;-65
2023/12/17 12:31:27;;;;;;;15.25;3.42;;;;;;;-1.47;98.49;101911.59;10278135;28;20040;-65
2023/12/17 12:36:48;;;;;;;11.90;4.10;;;;;;;-1.50;97.83;101912.56;10228285;28;20121;-65
2023/12/17 12:41:50;;;;;;;16.52;3.90;;;;;;;-1.70;98.39;101904.59;10241131;28;20031;-65
2023/12/17 12:46:51;;;;;;;16.42;3.70;;;;;;;-2.12;98.96;101866.03;10261526;28;20048;-65
2023/12/17 12:51:52;;;;;;;11.43;3.63;;;;;;;-1.78;99.58;101930.03;10217199;28;20093;-65
2023/12/17 12:56:53;;;;;;;11.95;3.38;;;;;;;-2.20;99.28;101868.00;10312155;28;20041;-65
2023/12/17 13:01:55;;;;;;;26.70;4.68;;;;;;;-2.14;99.80;101907.72;10344836;28;20047;-65
2023/12/17 13:06:56;;;;;;;12.95;3.70;;;;;;;-2.12;99.85;101923.31;10210528;28;20048;-65
2023/12/17 13:11:56;;;;;;;8.85;3.70;;;;;;;-2.57;100.00;101896.03;10344845;28;20048;-65
2023/12/17 13:16:57;;;;;;;16.92;4.65;;;;;;;-2.48;100.00;101936.53;10266517;28;20491;-64
2023/12/17 13:21:58;;;;;;;13.43;5.00;;;;;;;-2.61;100.00;101946.44;10279308;28;20040;-64
2023/12/17 13:27:00;;;;;;;13.93;3.80;;;;;;;-3.12;100.00;101882.00;10284913;28;20567;-64
2023/12/17 13:32:00;;;;;;;13.88;4.28;;;;;;;-2.92;100.00;101951.66;10278368;28;20177;-65
2023/12/17 13:37:02;;;;;;;12.95;4.15;;;;;;;-2.94;100.00;101962.97;10378225;28;20075;-64
2023/12/17 13:42:04;;;;;;;17.83;4.07;;;;;;;-3.19;100.00;101965.41;10416448;28;20041;-66
2023/12/17 13:47:06;;;;;;;15.52;4.57;;;;;;;-3.42;100.00;101969.44;10212371;28;20071;-65
2023/12/17 13:52:07;;;;;;;12.95;3.72;;;;;;;-3.57;100.00;101972.41;10285976;28;20130;-64
2023/12/17 13:57:08;;;;;;;15.70;4.47;;;;;;;-3.86;100.00;101976.53;10286364;28;20444;-64
2023/12/17 14:02:08;;;;;;;13.25;4.38;;;;;;;-4.21;100.00;101985.16;10332399;28;20050;-65
2023/12/17 14:07:09;;;;;;;14.27;4.78;;;;;;;-4.54;99.81;101991.91;10300900;28;20659;-65
2023/12/17 14:12:12;;;;;;;13.15;4.78;;;;;;;-5.05;99.92;101983.34;10385411;28;20033;-65
2023/12/17 14:17:13;;;;;;;9.90;4.65;;;;;;;-5.51;99.71;101941.84;10296953;28;20138;-66
2023/12/17 14:22:15;;;;;;;10.43;4.85;;;;;;;-5.30;99.54;102020.91;10239919;28;20123;-65
2023/12/17 14:27:16;;;;;;;29.70;14.65;;;;;;;-5.37;99.92;102027.09;10271985;28;20051;-66
2023/12/17 14:32:16;;;;;;;22.92;11.85;;;;;;;-5.57;99.89;102002.34;10206223;28;20036;-66
2023/12/17 14:37:17;;;;;;;18.52;6.78;;;;;;;-5.38;99.27;102038.34;10216840;28;20073;-65
2023/12/17 14:42:18;;;;;;;18.85;7.45;;;;;;;-5.62;99.43;101975.69;10330938;28;20034;-67
2023/12/17 14:47:19;;;;;;;15.00;6.72;;;;;;;-5.41;99.98;102018.53;10324680;28;20040;-68
2023/12/17 14:52:20;;;;;;;23.83;10.30;;;;;;;-5.23;99.91;102021.69;10203839;29;20595;-66
2023/12/17 14:57:21;;;;;;;17.10;8.10;;;;;;;-5.97;99.47;101911.59;10204506;29;20049;-67
2023/12/17 15:02:24;;;;;;;18.40;8.32;;;;;;;-5.52;98.58;102016.09;10312350;28;20053;-65
2023/12/17 15:07:24;;;;;;;17.92;8.02;;;;;;;-5.71;98.89;102011.22;10206640;29;20050;-66
2023/12/17 15:12:25;;;;;;;26.83;14.20;;;;;;;-5.89;98.59;102012.34;10206532;29;20046;-66
2023/12/17 15:17:26;;;;;;;15.75;7.80;;;;;;;-6.02;98.64;102007.38;10205477;29;20415;-66
2023/12/17 15:22:27;;;;;;;16.35;6.75;;;;;;;-6.02;99.55;102029.81;10206019;29;20051;-66
2023/12/17 15:27:28;;;;;;;15.60;7.47;;;;;;;-6.05;100.00;102035.88;10397583;28;20042;-66
2023/12/17 15:32:29;;;;;;;17.38;7.72;;;;;;;-6.08;100.00;102029.91;10411641;28;20045;-66
2023/12/17 15:37:31;;;;;;;15.43;7.55;;;;;;;-6.24;99.73;102024.06;10410272;28;20068;-66
2023/12/17 15:42:32;;;;;;;20.13;7.15;;;;;;;-6.24;99.23;102044.75;10406109;28;20512;-66
2023/12/17 15:47:35;;;;;;;18.02;7.03;;;;;;;-6.34;99.05;102043.16;10412244;28;20042;-67
2023/12/17 15:52:36;;;;;;;17.97;6.43;;;;;;;-6.84;98.90;101993.75;10412882;28;20152;-68
2023/12/17 15:57:38;;;;;;;15.23;5.32;;;;;;;-7.01;96.83;102029.25;10396198;28;20050;-67
2023/12/17 16:02:39;;;;;;;16.88;6.30;;;;;;;-7.32;95.95;102031.25;10281161;28;20383;-67
2023/12/17 16:07:50;;;;;;;16.30;5.35;;;;;;;-7.67;95.23;102016.88;10411931;28;20057;-67
2023/12/17 16:12:51;;;;;;;13.80;5.75;;;;;;;-8.09;95.10;102027.47;10412871;28;20504;-67
2023/12/17 16:17:53;;;;;;;12.60;4.63;;;;;;;-8.66;95.46;101977.06;10372582;28;20041;-68
2023/12/17 16:22:56;;;;;;;11.07;4.15;;;;;;;-8.54;95.86;102016.53;10214773;28;20043;-65
2023/12/17 16:27:57;;;;;;;13.70;3.95;;;;;;;-8.47;96.84;102040.53;10332922;28;20048;-65
2023/12/17 16:32:58;;;;;;;6.53;3.28;;;;;;;-8.58;96.70;102035.44;10297652;28;20044;-67
2023/12/17 16:38:00;;;;;;;13.40;4.15;;;;;;;-9.01;95.82;101983.19;10267080;28;20063;-65
2023/12/17 16:43:04;;;;;;;12.88;3.63;;;;;;;-9.03;95.57;101993.50;10212071;29;20043;-66
2023/12/17 16:48:06;;;;;;;10.23;3.50;;;;;;;-8.85;95.17;102035.53;10210175;29;20450;-66
2023/12/17 16:53:07;;;;;;;9.50;3.92;;;;;;;-8.80;95.65;102042.34;10211546;29;20079;-66
2023/12/17 16:58:08;;;;;;;9.10;4.57;;;;;;;-9.21;94.24;102003.84;10209650;29;20525;-66
2023/12/17 17:03:10;;;;;;;13.50;4.35;;;;;;;-9.03;94.29;102052.72;10209557;29;20035;-67
2023/12/17 17:08:11;;;;;;;10.00;4.20;;;;;;;-9.05;93.99;102058.72;10283067;28;20069;-66
2023/12/17 17:13:12;;;;;;;10.07;4.30;;;;;;;-9.14;94.16;102059.59;10223391;28;20047;-66
2023/12/17 17:18:14;;;;;;;11.30;4.20;;;;;;;-9.25;93.13;102059.56;10206200;29;20062;-66
2023/12/17 17:23:15;;;;;;;11.45;3.70;;;;;;;-9.24;93.80;102068.19;10253788;28;20043;-66
2023/12/17 17:28:17;;;;;;;12.05;3.85;;;;;;;-9.36;93.68;102058.75;10391934;28;20053;-68
2023/12/17 17:33:20;;;;;;;8.90;4.05;;;;;;;-9.28;94.29;102048.44;10379558;28;20049;-67
2023/12/17 17:38:23;;;;;;;8.75;3.83;;;;;;;-9.20;94.42;102032.13;10414353;28;20081;-65
2023/12/17 17:43:24;;;;;;;9.55;3.50;;;;;;;-9.39;94.29;102021.84;10416215;28;20551;-65
2023/12/17 17:48:28;;;;;;;11.50;3.83;;;;;;;-9.43;94.42;102029.56;10415084;28;20404;-67
2023/12/17 17:53:33;;;;;;;;;;;;;;;-9.33;92.15;102047.56;10415619;28;20095;-67
2023/12/17 17:58:35;;;;;;;16.05;4.30;;;;;;;-9.98;93.14;101996.06;10394373;28;19918;-67
2023/12/17 18:03:37;;;;;;;11.93;3.80;;;;;;;-10.03;93.29;101971.22;10265066;28;20458;-65
2023/12/17 18:08:38;;;;;;;15.65;7.55;;;;;;;-9.43;93.86;102037.28;10308992;28;20095;-67
2023/12/17 18:13:40;;;;;;;11.30;5.53;;;;;;;-9.86;93.73;101942.97;10416161;28;20045;-66
2023/12/17 18:18:41;;;;;;;19.02;6.78;;;;;;;-9.60;93.93;101966.97;10416537;28;20037;-66
2023/12/17 18:23:42;;;;;;;14.05;6.43;;;;;;;-9.69;93.30;101956.66;10416276;28;20073;-66
2023/12/17 18:28:44;;;;;;;10.50;4.55;;;;;;;-9.28;93.57;102002.09;10416071;28;20393;-67
2023/12/17 18:33:46;;;;;;;12.85;5.10;;;;;;;-9.27;93.83;102007.25;10414195;28;20045;-67
2023/12/17 18:38:48;;;;;;;8.95;3.80;;;;;;;-9.33;93.21;101996.09;10412890;28;20045;-67
2023/12/17 18:43:48;;;;;;;36.10;4.88;;;;;;;-9.43;92.35;102000.41;10414413;28;20053;-66
2023/12/17 18:48:49;;;;;;;9.85;4.20;;;;;;;-9.65;92.03;101994.41;10336131;28;20404;-65
2023/12/17 18:53:50;;;;;;;16.77;4.50;;;;;;;-9.79;91.75;101990.97;10247452;28;20054;-65
2023/12/17 18:58:51;;;;;;;13.85;6.05;;;;;;;-10.22;90.82;101945.50;10246642;28;20522;-67
2023/12/17 19:03:52;;;;;;;10.60;4.63;;;;;;;-10.23;91.07;101973.72;10247746;28;20586;-66
2023/12/17 19:08:54;;;;;;;10.20;4.05;;;;;;;-10.13;91.40;101990.91;10246768;28;20039;-65
2023/12/17 19:13:56;;;;;;;7.97;3.47;;;;;;;-9.99;92.24;101972.94;10227123;28;20062;-66
2023/12/17 19:18:57;;;;;;;7.53;3.40;;;;;;;-10.37;92.00;101912.09;10205394;29;20451;-67
2023/12/17 19:23:58;;;;;;;9.57;4.10;;;;;;;-10.13;91.05;101960.91;10250662;28;20044;-67
2023/12/17 19:28:59;;;;;;;9.95;3.70;;;;;;;-10.26;90.98;101941.22;10206293;29;20063;-67
2023/12/17 19:34:00;;;;;;;6.25;3.50;;;;;;;-10.21;91.00;101970.31;10206715;28;20058;-68
2023/12/17 19:39:01;;;;;;;7.75;3.53;;;;;;;-10.59;90.70;101918.88;10206236;28;20063;-68
2023/12/17 19:44:02;;;;;;;8.85;3.80;;;;;;;-10.38;90.44;101975.47;10206213;29;20039;-68
2023/12/17 19:49:03;;;;;;;8.43;4.05;;;;;;;-10.92;89.56;101904.22;10215519;29;20054;-67
2023/12/17 19:54:05;;;;;;;8.20;3.45;;;;;;;-10.45;90.48;101960.03;10219171;29;20046;-67
2023/12/17 19:59:06;;;;;;;7.72;3.08;;;;;;;-10.55;90.41;101955.72;10334449;28;20045;-67
2023/12/17 20:04:07;;;;;;;12.13;3.30;;;;;;;-10.59;90.00;101957.38;10427285;28;20045;-69
2023/12/17 20:09:08;;;;;;;7.88;3.90;;;;;;;-11.02;88.93;101935.84;10425420;28;20095;-66
2023/12/17 20:14:09;;;;;;;9.45;3.50;;;;;;;-11.11;88.68;101955.44;10426197;28;20567;-66
2023/12/17 20:19:12;;;;;;;13.13;4.75;;;;;;;-11.15;89.84;101947.75;10426665;28;20045;-66
2023/12/17 20:24:13;;;;;;;8.97;3.70;;;;;;;-11.54;89.57;101885.09;10425716;28;20504;-66
2023/12/17 20:29:14;;;;;;;8.57;3.97;;;;;;;-11.15;90.02;101938.34;10426108;28;20481;-67
2023/12/17 20:34:15;;;;;;;11.50;4.63;;;;;;;-10.93;90.93;101943.56;10425758;28;20044;-67
2023/12/17 20:39:16;;;;;;;8.65;4.38;;;;;;;-10.94;90.35;101931.59;10426058;28;20497;-67
2023/12/17 20:44:17;;;;;;;10.35;4.88;;;;;;;-10.73;90.58;101941.09;10425785;28;20497;-66
2023/12/17 20:49:18;;;;;;;9.07;4.65;;;;;;;-10.69;90.24;101923.13;10425931;28;20041;-67
2023/12/17 20:54:18;;;;;;;10.57;4.53;;;;;;;-10.95;88.77;101912.75;10425331;28;20045;-66
2023/12/17 20:59:19;;;;;;;10.25;4.75;;;;;;;-10.95;89.30;101915.31;10421595;28;20071;-66
2023/12/17 21:04:20;;;;;;;11.02;5.05;;;;;;;-11.31;89.34;101859.56;10419059;28;20053;-65
2023/12/17 21:09:21;;;;;;;12.02;5.65;;;;;;;-10.94;89.43;101911.06;10418305;28;20500;-71
2023/12/17 21:14:22;;;;;;;13.52;6.03;;;;;;;-11.32;89.24;101847.59;10343181;28;20109;-66
2023/12/17 21:19:22;;;;;;;16.92;6.38;;;;;;;-11.40;89.56;101842.41;10210723;29;20059;-65
2023/12/17 21:24:23;;;;;;;14.63;6.25;;;;;;;-11.03;90.16;101886.22;10211055;29;20181;-66
2023/12/17 21:29:24;;;;;;;12.57;6.78;;;;;;;-10.72;90.88;101897.44;10209961;29;20036;-66
2023/12/17 21:34:25;;;;;;;15.55;7.53;;;;;;;-10.89;90.44;101873.41;10209937;29;20135;-66
2023/12/17 21:39:25;;;;;;;14.18;6.97;;;;;;;-10.85;90.58;101881.16;10209919;28;20060;-66
2023/12/17 21:44:26;;;;;;;13.18;6.07;;;;;;;-10.74;90.45;101883.72;10208980;29;20043;-66
2023/12/17 21:49:27;;;;;;;11.15;5.78;;;;;;;-10.71;90.44;101870.91;10209839;29;20075;-66
2023/12/17 21:54:28;;;;;;;19.10;5.90;;;;;;;-10.68;89.70;101868.34;10209202;28;20181;-66
2023/12/17 21:59:33;;;;;;;13.25;6.10;;;;;;;-10.92;89.00;101842.59;10209328;29;20388;-66
2023/12/17 22:04:35;;;;;;;13.27;6.05;;;;;;;-10.67;89.99;101862.38;10208913;29;20044;-66
2023/12/17 22:09:38;;;;;;;14.88;5.65;;;;;;;-10.09;92.07;101876.97;10208057;29;20040;-67
2023/12/17 22:14:39;;;;;;;16.98;6.35;;;;;;;-9.69;92.56;101848.63;10208945;29;20047;-70
2023/12/17 22:19:40;;;;;;;10.88;5.35;;;;;;;-9.18;92.87;101862.25;10209843;29;20051;-68
2023/12/17 22:24:41;;;;;;;10.43;5.72;;;;;;;-8.83;93.70;101849.19;10208156;29;20040;-69
2023/12/17 22:29:42;;;;;;;11.00;5.78;;;;;;;-8.45;94.32;101837.81;10208705;29;20040;-67
2023/12/17 22:34:43;;;;;;;10.25;5.53;;;;;;;-8.47;94.26;101813.78;10208880;29;20545;-69
2023/12/17 22:39:45;;;;;;;10.23;5.65;;;;;;;-8.22;94.54;101836.78;10208141;29;20051;-68
2023/12/17 22:44:47;;;;;;;10.63;5.70;;;;;;;-8.46;94.86;101769.13;10207541;29;20052;-69